This is the latest recevied weather packets stored in our database for station/object KB4MOX. If no packets are shown the sender has not sent any weather packets the latest 10 day(s).
| Time | Temp. | Humidity | Pressure | Rain* | Wind** | Luminosity | Snow |
|---|---|---|---|---|---|---|---|
| 1788109544 | 30° C | 65% | 1021.6 hPa | 0 mm | - | 600 W/m² | - |
| 1788109243 | 30° C | 67% | 1021.9 hPa | 0 mm | - | 265 W/m² | - |
| 1788108938 | 30° C | 65% | 1022 hPa | 0 mm | - | 115 W/m² | - |
| 1788108634 | 29.44° C | 66% | 1022 hPa | 0 mm | - | 600 W/m² | - |
| 1788108330 | 29.44° C | 68% | 1022.1 hPa | 0 mm | - | 393 W/m² | - |
| 1788108026 | 30° C | 67% | 1022 hPa | 0 mm | - | 110 W/m² | - |
| 1788107723 | 28.89° C | 70% | 1022.2 hPa | 0 mm | - | 271 W/m² | - |
| 1788107422 | 27.78° C | 74% | 1022.3 hPa | 0 mm | - | 825 W/m² | - |
| 1788107118 | 27.78° C | 73% | 1022.3 hPa | 0 mm | - | 222 W/m² | - |
| 1788106812 | 28.33° C | 74% | 1022.5 hPa | 0 mm | - | 148 W/m² | - |
| 1788106507 | 28.33° C | 74% | 1022.6 hPa | 0 mm | - | 152 W/m² | - |
| 1788106202 | 28.33° C | 74% | 1022.4 hPa | 0 mm | - | 781 W/m² | - |
| 1788105898 | 28.89° C | 74% | 1022.5 hPa | 0 mm | - | 106 W/m² | - |
| 1788105592 | 28.89° C | 72% | 1022.6 hPa | 0 mm | - | 781 W/m² | - |
| 1788105289 | 28.89° C | 71% | 1022.6 hPa | 0 mm | - | 426 W/m² | - |
| 1788104984 | 28.89° C | 71% | 1022.7 hPa | 0 mm | - | 466 W/m² | - |
| 1788104679 | 28.89° C | 70% | 1022.9 hPa | 0 mm | - | 751 W/m² | - |
| 1788104376 | 28.33° C | 74% | 1022.8 hPa | 0 mm | - | 305 W/m² | - |
| 1788104071 | 28.33° C | 74% | 1022.5 hPa | 0 mm | - | 119 W/m² | - |
| 1788103771 | 28.33° C | 75% | 1022.7 hPa | 0 mm | - | 653 W/m² | - |
| 1788103466 | 27.78° C | 77% | 1022.7 hPa | 0 mm | - | 500 W/m² | - |
| 1788103160 | 27.22° C | 79% | 1022.7 hPa | 0 mm | - | 121 W/m² | - |
| 1788102859 | 27.22° C | 77% | 1022.8 hPa | 0 mm | - | 104 W/m² | - |
| 1788102554 | 27.78° C | 78% | 1023 hPa | 0 mm | - | 282 W/m² | - |
| 1788102254 | 27.22° C | 79% | 1022.7 hPa | 0 mm | - | 126 W/m² | - |
* Rain latest hour (hover to see other rain measurements)
** Current wind speed in m/s (hover to see current wind gust speed)